sensor_id;sensor_type;location;lat;lon;timestamp;P1;durP1;ratioP1;P2;durP2;ratioP2
15526;SDS011;7865;50.918;4.510;2023-11-21T00:00:27;72.83;;;31.00;;
15526;SDS011;7865;50.918;4.510;2023-11-21T00:05:28;79.87;;;31.87;;
15526;SDS011;7865;50.918;4.510;2023-11-21T00:10:30;107.93;;;35.40;;
15526;SDS011;7865;50.918;4.510;2023-11-21T00:15:31;86.63;;;32.47;;
15526;SDS011;7865;50.918;4.510;2023-11-21T00:20:32;88.87;;;32.53;;
15526;SDS011;7865;50.918;4.510;2023-11-21T00:25:33;85.50;;;33.17;;
15526;SDS011;7865;50.918;4.510;2023-11-21T00:30:34;88.57;;;34.47;;
15526;SDS011;7865;50.918;4.510;2023-11-21T00:35:36;88.20;;;31.67;;
15526;SDS011;7865;50.918;4.510;2023-11-21T00:40:38;79.73;;;30.80;;
15526;SDS011;7865;50.918;4.510;2023-11-21T00:45:39;81.67;;;32.27;;
15526;SDS011;7865;50.918;4.510;2023-11-21T00:50:41;65.43;;;28.67;;
15526;SDS011;7865;50.918;4.510;2023-11-21T00:55:42;77.63;;;29.53;;
15526;SDS011;7865;50.918;4.510;2023-11-21T01:00:43;89.80;;;31.87;;
15526;SDS011;7865;50.918;4.510;2023-11-21T01:05:46;87.33;;;31.37;;
15526;SDS011;7865;50.918;4.510;2023-11-21T01:10:47;77.07;;;30.37;;
15526;SDS011;7865;50.918;4.510;2023-11-21T01:15:48;80.13;;;31.90;;
15526;SDS011;7865;50.918;4.510;2023-11-21T01:20:50;116.07;;;36.43;;
15526;SDS011;7865;50.918;4.510;2023-11-21T01:25:51;89.53;;;31.87;;
15526;SDS011;7865;50.918;4.510;2023-11-21T01:30:52;80.23;;;30.73;;
15526;SDS011;7865;50.918;4.510;2023-11-21T01:35:57;79.10;;;31.93;;
15526;SDS011;7865;50.918;4.510;2023-11-21T01:40:58;74.90;;;30.23;;
15526;SDS011;7865;50.918;4.510;2023-11-21T01:46:01;80.30;;;30.73;;
15526;SDS011;7865;50.918;4.510;2023-11-21T01:51:03;82.30;;;33.40;;
15526;SDS011;7865;50.918;4.510;2023-11-21T01:56:04;100.90;;;33.37;;
15526;SDS011;7865;50.918;4.510;2023-11-21T02:01:12;89.90;;;32.23;;
15526;SDS011;7865;50.918;4.510;2023-11-21T02:06:15;81.63;;;31.17;;
15526;SDS011;7865;50.918;4.510;2023-11-21T02:11:16;83.83;;;31.77;;
15526;SDS011;7865;50.918;4.510;2023-11-21T02:16:17;79.57;;;31.97;;
15526;SDS011;7865;50.918;4.510;2023-11-21T02:21:18;79.37;;;34.63;;
15526;SDS011;7865;50.918;4.510;2023-11-21T02:26:23;73.77;;;31.03;;
15526;SDS011;7865;50.918;4.510;2023-11-21T02:31:26;73.87;;;33.20;;
15526;SDS011;7865;50.918;4.510;2023-11-21T02:36:29;71.23;;;32.13;;
15526;SDS011;7865;50.918;4.510;2023-11-21T02:41:30;65.43;;;30.90;;
15526;SDS011;7865;50.918;4.510;2023-11-21T02:46:32;76.57;;;31.63;;
15526;SDS011;7865;50.918;4.510;2023-11-21T02:51:34;76.47;;;31.43;;
15526;SDS011;7865;50.918;4.510;2023-11-21T02:56:35;69.60;;;30.90;;
15526;SDS011;7865;50.918;4.510;2023-11-21T03:01:37;70.87;;;31.17;;
15526;SDS011;7865;50.918;4.510;2023-11-21T03:06:40;65.30;;;30.63;;
15526;SDS011;7865;50.918;4.510;2023-11-21T03:11:41;62.83;;;27.73;;
15526;SDS011;7865;50.918;4.510;2023-11-21T03:16:56;71.17;;;28.73;;
15526;SDS011;7865;50.918;4.510;2023-11-21T03:21:58;69.27;;;29.33;;
15526;SDS011;7865;50.918;4.510;2023-11-21T03:26:59;53.73;;;26.87;;
15526;SDS011;7865;50.918;4.510;2023-11-21T03:32:01;59.60;;;27.37;;
15526;SDS011;7865;50.918;4.510;2023-11-21T03:37:02;68.50;;;27.23;;
15526;SDS011;7865;50.918;4.510;2023-11-21T03:42:04;64.27;;;27.07;;
15526;SDS011;7865;50.918;4.510;2023-11-21T03:47:05;63.73;;;28.07;;
15526;SDS011;7865;50.918;4.510;2023-11-21T03:52:07;66.73;;;26.10;;
15526;SDS011;7865;50.918;4.510;2023-11-21T03:57:10;54.50;;;25.33;;
15526;SDS011;7865;50.918;4.510;2023-11-21T04:02:12;51.37;;;25.00;;
15526;SDS011;7865;50.918;4.510;2023-11-21T04:07:13;53.23;;;24.57;;
15526;SDS011;7865;50.918;4.510;2023-11-21T04:12:14;63.90;;;24.43;;
15526;SDS011;7865;50.918;4.510;2023-11-21T04:17:17;50.13;;;24.30;;
15526;SDS011;7865;50.918;4.510;2023-11-21T04:22:20;49.50;;;23.27;;
15526;SDS011;7865;50.918;4.510;2023-11-21T04:27:21;49.60;;;24.37;;
15526;SDS011;7865;50.918;4.510;2023-11-21T04:32:22;49.00;;;23.70;;
15526;SDS011;7865;50.918;4.510;2023-11-21T04:37:23;62.10;;;23.90;;
15526;SDS011;7865;50.918;4.510;2023-11-21T04:42:25;57.80;;;23.63;;
15526;SDS011;7865;50.918;4.510;2023-11-21T04:47:26;53.93;;;24.53;;
15526;SDS011;7865;50.918;4.510;2023-11-21T04:52:27;48.87;;;23.43;;
15526;SDS011;7865;50.918;4.510;2023-11-21T04:57:28;61.67;;;23.27;;
15526;SDS011;7865;50.918;4.510;2023-11-21T05:02:29;58.17;;;25.97;;
15526;SDS011;7865;50.918;4.510;2023-11-21T05:07:36;55.80;;;26.00;;
15526;SDS011;7865;50.918;4.510;2023-11-21T05:12:38;68.47;;;26.90;;
15526;SDS011;7865;50.918;4.510;2023-11-21T05:17:40;56.43;;;26.40;;
15526;SDS011;7865;50.918;4.510;2023-11-21T05:22:50;58.07;;;27.57;;
15526;SDS011;7865;50.918;4.510;2023-11-21T05:27:51;61.07;;;27.43;;
15526;SDS011;7865;50.918;4.510;2023-11-21T05:32:53;56.47;;;28.47;;
15526;SDS011;7865;50.918;4.510;2023-11-21T05:37:55;54.27;;;28.73;;
15526;SDS011;7865;50.918;4.510;2023-11-21T05:42:56;54.00;;;28.27;;
15526;SDS011;7865;50.918;4.510;2023-11-21T05:47:58;73.30;;;30.17;;
15526;SDS011;7865;50.918;4.510;2023-11-21T05:52:59;119.73;;;33.63;;
15526;SDS011;7865;50.918;4.510;2023-11-21T05:58:01;69.87;;;31.47;;
15526;SDS011;7865;50.918;4.510;2023-11-21T06:03:03;62.40;;;29.10;;
15526;SDS011;7865;50.918;4.510;2023-11-21T06:08:07;57.97;;;30.47;;
15526;SDS011;7865;50.918;4.510;2023-11-21T06:13:08;62.90;;;30.57;;
15526;SDS011;7865;50.918;4.510;2023-11-21T06:18:11;88.10;;;44.50;;
15526;SDS011;7865;50.918;4.510;2023-11-21T06:23:15;108.57;;;52.50;;
15526;SDS011;7865;50.918;4.510;2023-11-21T06:28:17;65.67;;;35.80;;
15526;SDS011;7865;50.918;4.510;2023-11-21T06:33:18;80.73;;;35.23;;
15526;SDS011;7865;50.918;4.510;2023-11-21T06:38:20;125.17;;;71.57;;
15526;SDS011;7865;50.918;4.510;2023-11-21T06:43:21;97.57;;;47.07;;
15526;SDS011;7865;50.918;4.510;2023-11-21T06:48:22;103.13;;;46.23;;
15526;SDS011;7865;50.918;4.510;2023-11-21T06:53:24;81.83;;;41.87;;
15526;SDS011;7865;50.918;4.510;2023-11-21T06:58:25;86.27;;;42.97;;
15526;SDS011;7865;50.918;4.510;2023-11-21T07:03:26;75.97;;;36.47;;
15526;SDS011;7865;50.918;4.510;2023-11-21T07:08:27;76.87;;;42.57;;
15526;SDS011;7865;50.918;4.510;2023-11-21T07:13:29;84.20;;;45.40;;
15526;SDS011;7865;50.918;4.510;2023-11-21T07:18:30;113.07;;;44.90;;
15526;SDS011;7865;50.918;4.510;2023-11-21T07:23:31;90.00;;;44.83;;
15526;SDS011;7865;50.918;4.510;2023-11-21T07:28:32;100.20;;;49.97;;
15526;SDS011;7865;50.918;4.510;2023-11-21T07:33:33;106.57;;;50.77;;
15526;SDS011;7865;50.918;4.510;2023-11-21T07:38:34;90.77;;;40.60;;
15526;SDS011;7865;50.918;4.510;2023-11-21T07:43:36;77.13;;;36.63;;
15526;SDS011;7865;50.918;4.510;2023-11-21T07:48:38;88.73;;;39.87;;
15526;SDS011;7865;50.918;4.510;2023-11-21T07:53:40;74.37;;;37.50;;
15526;SDS011;7865;50.918;4.510;2023-11-21T07:58:41;88.17;;;42.93;;
15526;SDS011;7865;50.918;4.510;2023-11-21T08:03:42;74.83;;;38.00;;
15526;SDS011;7865;50.918;4.510;2023-11-21T08:08:45;72.73;;;35.60;;
15526;SDS011;7865;50.918;4.510;2023-11-21T08:13:46;85.93;;;37.77;;
15526;SDS011;7865;50.918;4.510;2023-11-21T08:18:47;85.87;;;38.30;;
15526;SDS011;7865;50.918;4.510;2023-11-21T08:23:48;78.10;;;36.07;;
15526;SDS011;7865;50.918;4.510;2023-11-21T08:28:54;83.33;;;36.13;;
15526;SDS011;7865;50.918;4.510;2023-11-21T08:33:57;92.57;;;40.30;;
15526;SDS011;7865;50.918;4.510;2023-11-21T08:38:58;75.37;;;35.60;;
15526;SDS011;7865;50.918;4.510;2023-11-21T08:43:59;89.43;;;39.50;;
15526;SDS011;7865;50.918;4.510;2023-11-21T08:49:01;86.87;;;37.97;;
15526;SDS011;7865;50.918;4.510;2023-11-21T08:54:03;80.97;;;37.90;;
15526;SDS011;7865;50.918;4.510;2023-11-21T08:59:07;86.53;;;36.80;;
15526;SDS011;7865;50.918;4.510;2023-11-21T09:04:09;85.90;;;35.93;;
15526;SDS011;7865;50.918;4.510;2023-11-21T09:09:10;84.27;;;35.17;;
15526;SDS011;7865;50.918;4.510;2023-11-21T09:14:11;96.93;;;35.53;;
15526;SDS011;7865;50.918;4.510;2023-11-21T09:19:15;89.43;;;33.13;;
15526;SDS011;7865;50.918;4.510;2023-11-21T09:24:16;114.20;;;38.73;;
15526;SDS011;7865;50.918;4.510;2023-11-21T09:29:17;113.43;;;36.03;;
15526;SDS011;7865;50.918;4.510;2023-11-21T09:34:19;143.27;;;41.80;;
15526;SDS011;7865;50.918;4.510;2023-11-21T09:39:21;135.23;;;39.20;;
15526;SDS011;7865;50.918;4.510;2023-11-21T09:44:32;125.90;;;38.63;;
15526;SDS011;7865;50.918;4.510;2023-11-21T09:49:37;104.27;;;34.07;;
15526;SDS011;7865;50.918;4.510;2023-11-21T09:54:39;96.57;;;34.33;;
15526;SDS011;7865;50.918;4.510;2023-11-21T09:59:41;76.00;;;27.60;;
15526;SDS011;7865;50.918;4.510;2023-11-21T10:04:44;72.23;;;30.53;;
15526;SDS011;7865;50.918;4.510;2023-11-21T10:09:46;75.87;;;33.30;;
15526;SDS011;7865;50.918;4.510;2023-11-21T10:14:49;77.40;;;31.60;;
15526;SDS011;7865;50.918;4.510;2023-11-21T10:19:53;68.00;;;31.63;;
15526;SDS011;7865;50.918;4.510;2023-11-21T10:24:56;71.97;;;31.40;;
15526;SDS011;7865;50.918;4.510;2023-11-21T10:29:57;78.50;;;32.27;;
15526;SDS011;7865;50.918;4.510;2023-11-21T10:34:59;79.40;;;32.77;;
15526;SDS011;7865;50.918;4.510;2023-11-21T10:40:07;69.43;;;30.47;;
15526;SDS011;7865;50.918;4.510;2023-11-21T10:45:13;63.53;;;28.00;;
15526;SDS011;7865;50.918;4.510;2023-11-21T10:50:15;67.63;;;28.63;;
15526;SDS011;7865;50.918;4.510;2023-11-21T10:55:19;63.77;;;27.63;;
15526;SDS011;7865;50.918;4.510;2023-11-21T11:00:22;63.70;;;26.23;;
15526;SDS011;7865;50.918;4.510;2023-11-21T11:05:28;69.30;;;29.03;;
15526;SDS011;7865;50.918;4.510;2023-11-21T11:10:33;71.33;;;29.80;;
15526;SDS011;7865;50.918;4.510;2023-11-21T11:15:34;73.47;;;30.87;;
15526;SDS011;7865;50.918;4.510;2023-11-21T11:20:36;75.78;;;32.03;;
15526;SDS011;7865;50.918;4.510;2023-11-21T11:25:47;78.13;;;31.57;;
15526;SDS011;7865;50.918;4.510;2023-11-21T11:31:17;81.55;;;32.53;;
15526;SDS011;7865;50.918;4.510;2023-11-21T11:36:47;67.07;;;28.77;;
15526;SDS011;7865;50.918;4.510;2023-11-21T11:41:53;60.53;;;27.40;;
15526;SDS011;7865;50.918;4.510;2023-11-21T11:46:54;54.90;;;24.10;;
15526;SDS011;7865;50.918;4.510;2023-11-21T11:57:33;43.67;;;20.50;;
15526;SDS011;7865;50.918;4.510;2023-11-21T12:02:36;38.75;;;20.52;;
15526;SDS011;7865;50.918;4.510;2023-11-21T12:07:40;36.45;;;18.13;;
15526;SDS011;7865;50.918;4.510;2023-11-21T12:12:56;39.83;;;19.80;;
15526;SDS011;7865;50.918;4.510;2023-11-21T12:17:59;44.93;;;22.43;;
15526;SDS011;7865;50.918;4.510;2023-11-21T12:23:00;47.00;;;23.63;;
15526;SDS011;7865;50.918;4.510;2023-11-21T12:28:02;41.23;;;19.43;;
15526;SDS011;7865;50.918;4.510;2023-11-21T12:33:04;29.23;;;14.47;;
15526;SDS011;7865;50.918;4.510;2023-11-21T12:38:07;24.80;;;13.23;;
15526;SDS011;7865;50.918;4.510;2023-11-21T12:43:10;22.52;;;13.50;;
15526;SDS011;7865;50.918;4.510;2023-11-21T12:48:11;18.33;;;10.55;;
15526;SDS011;7865;50.918;4.510;2023-11-21T12:53:13;12.93;;;9.35;;
15526;SDS011;7865;50.918;4.510;2023-11-21T12:58:17;15.63;;;10.40;;
15526;SDS011;7865;50.918;4.510;2023-11-21T13:03:21;16.07;;;9.77;;
15526;SDS011;7865;50.918;4.510;2023-11-21T13:08:26;10.87;;;6.93;;
15526;SDS011;7865;50.918;4.510;2023-11-21T13:13:29;10.80;;;7.43;;
15526;SDS011;7865;50.918;4.510;2023-11-21T13:18:31;9.93;;;6.83;;
15526;SDS011;7865;50.918;4.510;2023-11-21T13:23:34;9.17;;;6.47;;
15526;SDS011;7865;50.918;4.510;2023-11-21T13:28:36;8.00;;;6.63;;
15526;SDS011;7865;50.918;4.510;2023-11-21T13:33:38;11.60;;;7.67;;
15526;SDS011;7865;50.918;4.510;2023-11-21T13:38:41;10.40;;;7.43;;
15526;SDS011;7865;50.918;4.510;2023-11-21T13:43:43;8.50;;;7.20;;
15526;SDS011;7865;50.918;4.510;2023-11-21T13:48:51;8.63;;;6.17;;
15526;SDS011;7865;50.918;4.510;2023-11-21T13:53:56;9.03;;;5.57;;
15526;SDS011;7865;50.918;4.510;2023-11-21T13:58:58;7.20;;;5.43;;
15526;SDS011;7865;50.918;4.510;2023-11-21T14:04:04;7.63;;;4.57;;
15526;SDS011;7865;50.918;4.510;2023-11-21T14:09:18;5.27;;;4.63;;
15526;SDS011;7865;50.918;4.510;2023-11-21T14:14:26;6.17;;;4.10;;
15526;SDS011;7865;50.918;4.510;2023-11-21T14:19:28;9.20;;;4.97;;
15526;SDS011;7865;50.918;4.510;2023-11-21T14:24:33;6.47;;;4.67;;
15526;SDS011;7865;50.918;4.510;2023-11-21T14:29:34;6.07;;;4.50;;
15526;SDS011;7865;50.918;4.510;2023-11-21T14:34:40;6.07;;;5.03;;
15526;SDS011;7865;50.918;4.510;2023-11-21T14:39:43;7.97;;;4.93;;
15526;SDS011;7865;50.918;4.510;2023-11-21T14:44:48;9.50;;;5.67;;
15526;SDS011;7865;50.918;4.510;2023-11-21T14:49:49;9.30;;;5.73;;
15526;SDS011;7865;50.918;4.510;2023-11-21T14:54:53;10.07;;;7.27;;
15526;SDS011;7865;50.918;4.510;2023-11-21T15:00:15;14.90;;;7.90;;
15526;SDS011;7865;50.918;4.510;2023-11-21T15:05:37;12.20;;;8.47;;
15526;SDS011;7865;50.918;4.510;2023-11-21T15:10:46;11.20;;;7.97;;
15526;SDS011;7865;50.918;4.510;2023-11-21T15:15:49;20.00;;;11.70;;
15526;SDS011;7865;50.918;4.510;2023-11-21T15:20:53;18.63;;;9.37;;
15526;SDS011;7865;50.918;4.510;2023-11-21T15:25:55;12.47;;;7.70;;
15526;SDS011;7865;50.918;4.510;2023-11-21T15:30:56;14.97;;;7.47;;
15526;SDS011;7865;50.918;4.510;2023-11-21T15:35:58;14.37;;;8.57;;
15526;SDS011;7865;50.918;4.510;2023-11-21T15:40:59;13.30;;;8.90;;
15526;SDS011;7865;50.918;4.510;2023-11-21T15:46:01;14.83;;;8.97;;
15526;SDS011;7865;50.918;4.510;2023-11-21T15:51:07;17.23;;;9.50;;
15526;SDS011;7865;50.918;4.510;2023-11-21T15:56:13;19.50;;;13.63;;
15526;SDS011;7865;50.918;4.510;2023-11-21T16:01:14;18.67;;;10.57;;
15526;SDS011;7865;50.918;4.510;2023-11-21T16:06:16;17.83;;;11.30;;
15526;SDS011;7865;50.918;4.510;2023-11-21T16:11:17;20.23;;;12.47;;
15526;SDS011;7865;50.918;4.510;2023-11-21T16:16:20;19.27;;;11.67;;
15526;SDS011;7865;50.918;4.510;2023-11-21T16:21:22;19.10;;;12.23;;
15526;SDS011;7865;50.918;4.510;2023-11-21T16:26:23;21.57;;;12.93;;
15526;SDS011;7865;50.918;4.510;2023-11-21T16:31:24;21.67;;;12.33;;
15526;SDS011;7865;50.918;4.510;2023-11-21T16:36:25;19.33;;;11.60;;
15526;SDS011;7865;50.918;4.510;2023-11-21T16:41:27;24.97;;;12.87;;
15526;SDS011;7865;50.918;4.510;2023-11-21T16:46:29;22.43;;;13.17;;
15526;SDS011;7865;50.918;4.510;2023-11-21T16:51:30;20.93;;;12.73;;
15526;SDS011;7865;50.918;4.510;2023-11-21T16:56:31;25.10;;;13.07;;
15526;SDS011;7865;50.918;4.510;2023-11-21T17:01:33;25.10;;;13.27;;
15526;SDS011;7865;50.918;4.510;2023-11-21T17:06:34;27.57;;;13.87;;
15526;SDS011;7865;50.918;4.510;2023-11-21T17:11:36;22.97;;;13.43;;
15526;SDS011;7865;50.918;4.510;2023-11-21T17:16:38;21.67;;;13.83;;
15526;SDS011;7865;50.918;4.510;2023-11-21T17:21:41;28.53;;;15.10;;
15526;SDS011;7865;50.918;4.510;2023-11-21T17:26:42;26.90;;;14.40;;
15526;SDS011;7865;50.918;4.510;2023-11-21T17:31:44;24.13;;;14.53;;
15526;SDS011;7865;50.918;4.510;2023-11-21T17:36:45;31.13;;;15.77;;
15526;SDS011;7865;50.918;4.510;2023-11-21T17:41:47;30.10;;;15.50;;
15526;SDS011;7865;50.918;4.510;2023-11-21T17:46:49;31.20;;;15.20;;
15526;SDS011;7865;50.918;4.510;2023-11-21T17:51:56;30.57;;;15.17;;
15526;SDS011;7865;50.918;4.510;2023-11-21T17:57:03;35.50;;;19.37;;
15526;SDS011;7865;50.918;4.510;2023-11-21T18:02:10;39.47;;;20.20;;
15526;SDS011;7865;50.918;4.510;2023-11-21T18:07:12;39.17;;;19.97;;
15526;SDS011;7865;50.918;4.510;2023-11-21T18:12:15;36.40;;;20.40;;
15526;SDS011;7865;50.918;4.510;2023-11-21T18:17:17;40.70;;;21.83;;
15526;SDS011;7865;50.918;4.510;2023-11-21T18:22:20;39.67;;;20.97;;
15526;SDS011;7865;50.918;4.510;2023-11-21T18:27:26;39.53;;;21.43;;
15526;SDS011;7865;50.918;4.510;2023-11-21T18:32:30;39.93;;;22.93;;
15526;SDS011;7865;50.918;4.510;2023-11-21T18:37:31;40.83;;;21.43;;
15526;SDS011;7865;50.918;4.510;2023-11-21T18:42:33;34.50;;;19.70;;
15526;SDS011;7865;50.918;4.510;2023-11-21T18:47:34;38.20;;;24.13;;
15526;SDS011;7865;50.918;4.510;2023-11-21T18:52:35;28.47;;;17.40;;
15526;SDS011;7865;50.918;4.510;2023-11-21T18:57:36;29.30;;;16.70;;
15526;SDS011;7865;50.918;4.510;2023-11-21T19:02:37;29.33;;;17.80;;
15526;SDS011;7865;50.918;4.510;2023-11-21T19:07:40;32.77;;;18.93;;
15526;SDS011;7865;50.918;4.510;2023-11-21T19:12:42;35.07;;;19.20;;
15526;SDS011;7865;50.918;4.510;2023-11-21T19:17:43;37.10;;;18.23;;
15526;SDS011;7865;50.918;4.510;2023-11-21T19:22:44;37.60;;;19.50;;
15526;SDS011;7865;50.918;4.510;2023-11-21T19:27:46;40.80;;;19.57;;
15526;SDS011;7865;50.918;4.510;2023-11-21T19:32:48;50.67;;;23.73;;
15526;SDS011;7865;50.918;4.510;2023-11-21T19:37:50;49.40;;;23.60;;
15526;SDS011;7865;50.918;4.510;2023-11-21T19:42:52;40.23;;;20.13;;
15526;SDS011;7865;50.918;4.510;2023-11-21T19:47:54;47.37;;;23.47;;
15526;SDS011;7865;50.918;4.510;2023-11-21T19:52:55;43.20;;;21.07;;
15526;SDS011;7865;50.918;4.510;2023-11-21T19:57:56;42.60;;;20.77;;
15526;SDS011;7865;50.918;4.510;2023-11-21T20:02:57;37.67;;;20.70;;
15526;SDS011;7865;50.918;4.510;2023-11-21T20:07:58;36.00;;;20.17;;
15526;SDS011;7865;50.918;4.510;2023-11-21T20:12:59;36.57;;;21.03;;
15526;SDS011;7865;50.918;4.510;2023-11-21T20:18:07;33.97;;;20.43;;
15526;SDS011;7865;50.918;4.510;2023-11-21T20:23:08;31.40;;;19.63;;
15526;SDS011;7865;50.918;4.510;2023-11-21T20:28:09;38.67;;;21.43;;
15526;SDS011;7865;50.918;4.510;2023-11-21T20:33:10;33.03;;;21.00;;
15526;SDS011;7865;50.918;4.510;2023-11-21T20:38:12;36.23;;;21.73;;
15526;SDS011;7865;50.918;4.510;2023-11-21T20:43:14;34.00;;;20.37;;
15526;SDS011;7865;50.918;4.510;2023-11-21T20:48:15;31.97;;;20.40;;
15526;SDS011;7865;50.918;4.510;2023-11-21T20:53:18;34.87;;;21.47;;
15526;SDS011;7865;50.918;4.510;2023-11-21T20:58:19;36.17;;;22.90;;
15526;SDS011;7865;50.918;4.510;2023-11-21T21:03:20;34.17;;;22.73;;
15526;SDS011;7865;50.918;4.510;2023-11-21T21:08:21;32.47;;;22.07;;
15526;SDS011;7865;50.918;4.510;2023-11-21T21:13:26;32.50;;;22.47;;
15526;SDS011;7865;50.918;4.510;2023-11-21T21:18:27;30.87;;;20.10;;
15526;SDS011;7865;50.918;4.510;2023-11-21T21:23:29;34.70;;;23.00;;
15526;SDS011;7865;50.918;4.510;2023-11-21T21:28:30;35.40;;;22.73;;
15526;SDS011;7865;50.918;4.510;2023-11-21T21:33:31;35.90;;;23.37;;
15526;SDS011;7865;50.918;4.510;2023-11-21T21:38:32;44.00;;;25.13;;
15526;SDS011;7865;50.918;4.510;2023-11-21T21:43:34;42.40;;;26.27;;
15526;SDS011;7865;50.918;4.510;2023-11-21T21:48:35;37.37;;;25.03;;
15526;SDS011;7865;50.918;4.510;2023-11-21T21:53:36;37.80;;;23.27;;
15526;SDS011;7865;50.918;4.510;2023-11-21T21:58:38;38.07;;;24.33;;
15526;SDS011;7865;50.918;4.510;2023-11-21T22:03:39;35.67;;;23.20;;
15526;SDS011;7865;50.918;4.510;2023-11-21T22:08:41;38.03;;;24.33;;
15526;SDS011;7865;50.918;4.510;2023-11-21T22:13:42;37.70;;;23.50;;
15526;SDS011;7865;50.918;4.510;2023-11-21T22:18:43;34.43;;;23.27;;
15526;SDS011;7865;50.918;4.510;2023-11-21T22:23:44;35.47;;;22.90;;
15526;SDS011;7865;50.918;4.510;2023-11-21T22:28:45;35.53;;;23.37;;
15526;SDS011;7865;50.918;4.510;2023-11-21T22:33:46;37.10;;;23.57;;
15526;SDS011;7865;50.918;4.510;2023-11-21T22:38:47;36.83;;;22.90;;
15526;SDS011;7865;50.918;4.510;2023-11-21T22:43:48;38.43;;;25.00;;
15526;SDS011;7865;50.918;4.510;2023-11-21T22:48:50;37.87;;;21.83;;
15526;SDS011;7865;50.918;4.510;2023-11-21T22:53:51;37.63;;;23.20;;
15526;SDS011;7865;50.918;4.510;2023-11-21T22:58:52;41.90;;;23.60;;
15526;SDS011;7865;50.918;4.510;2023-11-21T23:03:53;33.53;;;22.17;;
15526;SDS011;7865;50.918;4.510;2023-11-21T23:08:56;37.80;;;22.47;;
15526;SDS011;7865;50.918;4.510;2023-11-21T23:13:57;38.87;;;22.47;;
15526;SDS011;7865;50.918;4.510;2023-11-21T23:18:58;43.10;;;24.00;;
15526;SDS011;7865;50.918;4.510;2023-11-21T23:23:59;41.60;;;23.27;;
15526;SDS011;7865;50.918;4.510;2023-11-21T23:29:07;47.80;;;27.13;;
15526;SDS011;7865;50.918;4.510;2023-11-21T23:34:09;43.77;;;23.20;;
15526;SDS011;7865;50.918;4.510;2023-11-21T23:39:12;39.37;;;24.43;;
15526;SDS011;7865;50.918;4.510;2023-11-21T23:44:15;43.40;;;26.77;;
15526;SDS011;7865;50.918;4.510;2023-11-21T23:49:17;42.47;;;24.63;;
15526;SDS011;7865;50.918;4.510;2023-11-21T23:54:19;37.63;;;23.67;;
15526;SDS011;7865;50.918;4.510;2023-11-21T23:59:21;39.87;;;22.73;;
